EGHH Airport Information

Runway Information
Runway 08 Length 7451 ft width 151 ft
Elevation 38 ft Threshold 1383 ft Heading 75
Runway 26 Length 7451 ft Width 151 ft
Elevation 31 ft Threshold 0 ft Heading 255
Airport Frequencies
Type APP Name APP Frequency 119.475 MHZ
Type ATIS Name ATIS Frequency 121.95 MHZ
Type GND Name GND Frequency 121.7 MHZ
Type TWR Name TWR Frequency 125.6 MHZ
Airport Navaids
Airport Weather Information & NOTAM
ADDS - METARS form results

(2016 UTC 21 March 2019)
Data provider http://aviationweather.gov/metar/data/
 
METAR text: EGHH 211950Z 15003KT 9999 BKN019 11/09 Q1032
Conditions at: EGHH (BOURNEMOUTH AIRP, GB) observed 1950 UTC 21 March 2019
Temperature: 11.0°C (52°F)
Dewpoint: 9.0°C (48°F) [RH = 87%]
Pressure (altimeter): 30.47 inches Hg (1032.0 mb)
Winds: from the SSE (150 degrees) at 3 MPH (3 knots; 1.5 m/s)
Visibility: 6 or more miles (10+ km)
Ceiling: 1900 feet AGL
Clouds: broken clouds at 1900 feet AGL
Weather: no significant weather observed at this time

METAR text: EGHH 211920Z 14004KT 9999 BKN018 11/09 Q1032
Conditions at: EGHH (BOURNEMOUTH AIRP, GB) observed 1920 UTC 21 March 2019
Temperature: 11.0°C (52°F)
Dewpoint: 9.0°C (48°F) [RH = 87%]
Pressure (altimeter): 30.47 inches Hg (1032.0 mb)
Winds: from the SE (140 degrees) at 5 MPH (4 knots; 2.1 m/s)
Visibility: 6 or more miles (10+ km)
Ceiling: 1800 feet AGL
Clouds: broken clouds at 1800 feet AGL
Weather: no significant weather observed at this time

Forecast for: EGHH (BOURNEMOUTH AIRP, GB)
Text: TAF EGHH 211955Z 2121/2206 15003KT 9999 SCT020
Forecast period: 2100 UTC 21 March 2019 to 0600 UTC 22 March 2019
Forecast type: FROM: standard forecast or significant change
Winds: from the SSE (150 degrees) at 3 MPH (3 knots; 1.5 m/s)
Visibility: 6 or more miles 10+ km)
Ceiling: at least 12,000 feet AGL
Clouds: scattered clouds at 2000 feet AGL
Weather: no significant weather forecast for this period
Text: PROB30
Forecast period: 2100 UTC 21 March 2019 to 0300 UTC 22 March 2019
Forecast type: TEMPORARY: The following changes expected for less than half the time period
Visibility: 6 miles (9 km)
Ceiling: 1400 feet AGL
Clouds: broken clouds at 1400 feet AGL
Weather: no significant weather forecast for this period
Text: TEMPO 2121/2203 9000 BKN014
Forecast period: 2300 UTC 21 March 2019 to 0600 UTC 22 March 2019
Forecast type: PROBABLE: 30 percent likelihood of the following during this time
Visibility: 1.86 miles (2.99 km)
Ceiling: unknown
Clouds: missing
Weather: BR  (mist)